Time;durP1;ratioP1;P1;durP2;ratioP2;P2;SDS_P1;SDS_P2;PMS_P1;PMS_P2;Temp;Humidity;BMP_temperature;BMP_pressure;BME280_temperature;BME280_humidity;BME280_pressure;Samples;Min_cycle;Max_cycle;Signal;HPM_P1;HPM_P2
2022/07/11 00:04:09;;;;;;;1.80;1.00;;;23.50;52.20;;;;;;220392;1269;23919;-52
2022/07/11 00:09:13;;;;;;;2.80;1.00;;;23.50;52.50;;;;;;220480;1267;24370;-51
2022/07/11 00:14:18;;;;;;;2.20;1.00;;;23.50;52.20;;;;;;220215;1268;22567;-52
2022/07/11 00:19:22;;;;;;;1.80;1.10;;;23.50;52.30;;;;;;220384;1268;24286;-56
2022/07/11 00:24:29;;;;;;;2.10;1.00;;;23.50;52.30;;;;;;220555;1267;24193;-52
2022/07/11 00:29:33;;;;;;;2.00;1.10;;;23.50;52.30;;;;;;220730;1267;22583;-53
2022/07/11 00:34:39;;;;;;;3.60;1.10;;;23.50;52.40;;;;;;220654;1267;22580;-51
2022/07/11 00:39:43;;;;;;;1.60;0.80;;;23.40;52.40;;;;;;220535;1268;25499;-53
2022/07/11 00:44:48;;;;;;;2.50;1.10;;;23.50;52.40;;;;;;220309;1267;22695;-50
2022/07/11 00:49:52;;;;;;;2.30;1.30;;;23.50;52.40;;;;;;220550;1267;22572;-50
2022/07/11 00:54:56;;;;;;;2.20;1.00;;;23.50;52.50;;;;;;220791;1267;22595;-55
2022/07/11 01:00:01;;;;;;;2.40;1.00;;;23.40;52.40;;;;;;220750;1267;22536;-52
2022/07/11 01:05:05;;;;;;;2.80;0.90;;;23.40;52.40;;;;;;220421;1267;25541;-53
2022/07/11 01:10:09;;;;;;;1.60;0.90;;;23.40;52.50;;;;;;220646;1267;23950;-48
2022/07/11 01:15:16;;;;;;;2.00;1.00;;;23.40;52.80;;;;;;220576;1267;22566;-51
2022/07/11 01:20:22;;;;;;;2.90;1.10;;;23.40;52.50;;;;;;220388;1268;22556;-51
2022/07/11 01:25:34;;;;;;;1.30;0.90;;;23.40;52.50;;;;;;220459;1267;25500;-50
2022/07/11 01:30:38;;;;;;;1.80;1.20;;;23.40;52.50;;;;;;220951;1268;22597;-54
2022/07/11 01:35:42;;;;;;;1.70;0.90;;;23.30;52.50;;;;;;220133;1267;447783;-50
2022/07/11 01:40:46;;;;;;;1.90;0.80;;;23.30;52.80;;;;;;220563;1267;25349;-50
2022/07/11 01:45:53;;;;;;;1.60;0.90;;;23.30;52.80;;;;;;220750;1267;22555;-52
2022/07/11 01:50:57;;;;;;;2.40;1.10;;;23.40;52.50;;;;;;220707;1267;22761;-49
2022/07/11 01:56:01;;;;;;;3.00;1.00;;;23.30;52.50;;;;;;220512;1267;22752;-52
2022/07/11 02:01:24;;;;;;;2.30;1.10;;;23.30;52.50;;;;;;220754;1267;22552;-52
2022/07/11 02:06:28;;;;;;;2.60;1.10;;;23.30;52.50;;;;;;220491;1267;25576;-51
2022/07/11 02:11:31;;;;;;;1.80;0.90;;;23.30;52.50;;;;;;220695;1268;22530;-53
2022/07/11 02:16:35;;;;;;;3.30;0.90;;;23.30;52.50;;;;;;220321;1268;23103;-51
2022/07/11 02:21:39;;;;;;;1.70;1.00;;;23.30;52.50;;;;;;220617;1268;26697;-50
2022/07/11 02:26:42;;;;;;;1.90;0.90;;;23.30;52.00;;;;;;220302;1270;25350;-51
2022/07/11 02:31:46;;;;;;;2.10;1.00;;;23.30;52.80;;;;;;220591;1267;22525;-54
2022/07/11 02:36:50;;;;;;;1.50;1.10;;;23.20;52.30;;;;;;220497;1267;25248;-52
2022/07/11 02:41:53;;;;;;;3.20;1.10;;;23.20;52.30;;;;;;220441;1268;22546;-53
2022/07/11 02:46:57;;;;;;;1.90;1.00;;;23.20;52.30;;;;;;220547;1268;25511;-51
2022/07/11 02:52:00;;;;;;;2.90;1.00;;;23.20;52.50;;;;;;220151;1268;24922;-51
2022/07/11 02:57:05;;;;;;;2.70;1.00;;;23.20;52.30;;;;;;220228;1268;24410;-51
2022/07/11 03:02:08;;;;;;;2.80;1.10;;;23.20;52.30;;;;;;220769;1267;22623;-49
2022/07/11 03:07:12;;;;;;;2.60;1.00;;;23.20;52.30;;;;;;220641;1267;25496;-50
2022/07/11 03:12:15;;;;;;;3.00;1.00;;;23.20;52.30;;;;;;220888;1267;24005;-52
2022/07/11 03:17:19;;;;;;;3.00;1.00;;;23.20;52.60;;;;;;220331;1267;22678;-49
2022/07/11 03:22:23;;;;;;;1.70;1.10;;;23.20;52.20;;;;;;220526;1268;22545;-51
2022/07/11 03:27:27;;;;;;;1.80;0.90;;;23.10;52.20;;;;;;220613;1268;26690;-52
2022/07/11 03:32:31;;;;;;;2.90;1.30;;;23.10;51.70;;;;;;220466;1268;24448;-50
2022/07/11 03:37:35;;;;;;;4.50;1.20;;;23.10;52.50;;;;;;220638;1267;22647;-51
2022/07/11 03:42:38;;;;;;;2.90;1.30;;;23.10;52.20;;;;;;220482;1267;24194;-52
2022/07/11 03:47:42;;;;;;;2.00;1.00;;;23.10;52.20;;;;;;220353;1267;24237;-52
2022/07/11 03:52:46;;;;;;;2.00;1.10;;;23.10;52.70;;;;;;220752;1267;24205;-52
2022/07/11 03:57:50;;;;;;;1.90;1.00;;;23.10;52.20;;;;;;220409;1268;22645;-51
2022/07/11 04:02:55;;;;;;;3.00;1.20;;;23.10;52.30;;;;;;220273;1268;23293;-52
2022/07/11 04:07:59;;;;;;;2.30;1.10;;;23.10;52.50;;;;;;220519;1268;23721;-51
2022/07/11 04:13:03;;;;;;;2.30;0.90;;;23.10;52.40;;;;;;220885;1267;22522;-50
2022/07/11 04:18:06;;;;;;;3.40;0.90;;;23.00;52.10;;;;;;220790;1267;25480;-54
2022/07/11 04:23:13;;;;;;;4.20;0.90;;;23.00;52.00;;;;;;220470;1267;24246;-52
2022/07/11 04:28:24;;;;;;;2.30;1.20;;;23.10;52.10;;;;;;220637;1268;24212;-51
2022/07/11 04:33:28;;;;;;;2.90;1.10;;;23.10;52.10;;;;;;220355;1267;25239;-53
2022/07/11 04:38:32;;;;;;;2.20;1.20;;;23.00;52.00;;;;;;220567;1267;25424;-52
2022/07/11 04:43:36;;;;;;;5.60;1.40;;;23.00;52.00;;;;;;220241;1268;24232;-54
2022/07/11 04:48:40;;;;;;;2.80;1.30;;;23.10;52.00;;;;;;220582;1267;24390;-54
2022/07/11 04:53:45;;;;;;;1.80;1.00;;;23.00;52.30;;;;;;220092;1270;22774;-51
2022/07/11 04:58:49;;;;;;;2.80;1.20;;;23.10;52.10;;;;;;220361;1268;22752;-52
2022/07/11 05:03:52;;;;;;;2.10;1.00;;;23.10;52.00;;;;;;220175;1269;25281;-52
2022/07/11 05:08:56;;;;;;;2.90;1.20;;;23.00;52.00;;;;;;220760;1267;24254;-52
2022/07/11 05:13:59;;;;;;;1.40;0.90;;;23.00;52.00;;;;;;220789;1267;25577;-51
2022/07/11 05:19:03;;;;;;;3.20;1.20;;;23.00;52.00;;;;;;220970;1267;25528;-54
2022/07/11 05:24:08;;;;;;;2.80;1.40;;;23.00;52.00;;;;;;220969;1267;23007;-50
2022/07/11 05:29:11;;;;;;;2.70;1.40;;;23.00;52.00;;;;;;220981;1267;22734;-50
2022/07/11 05:34:17;;;;;;;1.80;1.10;;;23.00;52.30;;;;;;220707;1267;24412;-50
2022/07/11 05:39:20;;;;;;;2.90;1.20;;;23.00;52.00;;;;;;220432;1267;24409;-53
2022/07/11 05:44:24;;;;;;;4.40;1.40;;;23.10;52.00;;;;;;220528;1267;22549;-52
2022/07/11 05:49:30;;;;;;;2.90;1.10;;;23.10;52.00;;;;;;220795;1268;24290;-53
2022/07/11 05:54:35;;;;;;;2.50;1.30;;;23.10;52.00;;;;;;220359;1267;22562;-53
2022/07/11 05:59:39;;;;;;;4.10;1.20;;;23.10;51.90;;;;;;220459;1267;22623;-51
2022/07/11 06:04:44;;;;;;;2.80;1.20;;;23.10;52.00;;;;;;220736;1268;25442;-51
2022/07/11 06:09:48;;;;;;;2.70;1.40;;;23.10;51.50;;;;;;220492;1270;22531;-51
2022/07/11 06:14:51;;;;;;;2.90;1.30;;;23.10;51.90;;;;;;220470;1267;24238;-52
2022/07/11 06:19:58;;;;;;;1.70;1.00;;;23.10;52.20;;;;;;220615;1267;22532;-51
2022/07/11 06:25:01;;;;;;;2.50;0.90;;;23.10;51.80;;;;;;220458;1267;22556;-52
2022/07/11 06:30:06;;;;;;;2.60;1.10;;;23.10;51.90;;;;;;220396;1270;25242;-52
2022/07/11 06:35:09;;;;;;;3.20;1.30;;;23.10;51.80;;;;;;220564;1267;22537;-52
2022/07/11 06:40:17;;;;;;;2.50;1.50;;;23.10;51.70;;;;;;220423;1267;24302;-55
2022/07/11 06:45:20;;;;;;;4.80;1.60;;;23.20;52.20;;;;;;220623;1267;25691;-54
2022/07/11 06:50:25;;;;;;;3.80;1.10;;;23.20;52.40;;;;;;220415;1267;25606;-55
2022/07/11 06:55:30;;;;;;;2.60;1.00;;;23.20;52.50;;;;;;220688;1267;22525;-54
2022/07/11 07:00:33;;;;;;;3.00;1.50;;;23.20;52.40;;;;;;220296;1267;26660;-54
2022/07/11 07:05:37;;;;;;;2.40;1.10;;;23.20;52.80;;;;;;220284;1268;24257;-52
2022/07/11 07:10:42;;;;;;;3.20;1.40;;;23.20;52.30;;;;;;220206;1268;22601;-53
2022/07/11 07:15:47;;;;;;;1.90;1.00;;;23.20;52.30;;;;;;220739;1267;25126;-52
2022/07/11 07:20:52;;;;;;;2.50;1.20;;;23.20;52.30;;;;;;220689;1268;24279;-52
2022/07/11 07:25:56;;;;;;;3.00;1.10;;;23.20;52.30;;;;;;220415;1267;22622;-54
2022/07/11 07:31:00;;;;;;;2.50;1.20;;;23.20;52.40;;;;;;220164;1267;23045;-56
2022/07/11 07:36:04;;;;;;;4.60;1.50;;;23.20;52.50;;;;;;220578;1267;22570;-55
2022/07/11 07:41:08;;;;;;;4.00;1.20;;;23.20;52.50;;;;;;221018;1267;22528;-53
2022/07/11 07:46:12;;;;;;;2.40;1.10;;;23.20;52.60;;;;;;220398;1267;22538;-54
2022/07/11 07:51:17;;;;;;;3.00;1.40;;;23.20;52.60;;;;;;220681;1267;23964;-52
2022/07/11 07:56:20;;;;;;;1.80;1.00;;;23.20;52.80;;;;;;220201;1270;24266;-51
2022/07/11 08:01:36;;;;;;;2.60;1.20;;;23.20;52.60;;;;;;220652;1266;22542;-53
2022/07/11 08:06:40;;;;;;;5.50;1.20;;;23.20;52.60;;;;;;220785;1267;22832;-52
2022/07/11 08:11:44;;;;;;;3.20;1.20;;;23.30;52.80;;;;;;220289;1267;25492;-51
2022/07/11 08:16:49;;;;;;;2.80;1.20;;;23.30;52.60;;;;;;220175;1267;24218;-51
2022/07/11 08:21:52;;;;;;;5.70;1.20;;;23.30;52.60;;;;;;220266;1267;25357;-51
2022/07/11 08:26:56;;;;;;;3.00;1.10;;;23.30;53.30;;;;;;220959;1267;25428;-52
2022/07/11 08:32:19;;;;;;;3.80;1.40;;;23.30;52.50;;;;;;220517;1267;26535;-54
2022/07/11 08:37:23;;;;;;;2.60;1.10;;;23.40;53.00;;;;;;220413;1267;23133;-52
2022/07/11 08:42:30;;;;;;;2.60;1.20;;;23.40;52.40;;;;;;220483;1268;22566;-53
2022/07/11 08:47:35;;;;;;;3.00;1.10;;;23.40;52.40;;;;;;220286;1267;25668;-54
2022/07/11 08:52:42;;;;;;;2.60;1.20;;;23.40;52.40;;;;;;220478;1267;22842;-54
2022/07/11 08:57:47;;;;;;;3.70;1.40;;;23.40;52.40;;;;;;220461;1268;25605;-54
2022/07/11 09:02:53;;;;;;;2.80;1.20;;;23.40;52.70;;;;;;220552;1267;25529;-53
2022/07/11 09:07:56;;;;;;;1.80;1.10;;;23.40;52.30;;;;;;220557;1267;25439;-53
2022/07/11 09:13:08;;;;;;;2.30;0.90;;;23.40;52.30;;;;;;220803;1267;24392;-55
2022/07/11 09:18:34;;;;;;;2.30;1.10;;;23.50;52.20;;;;;;220690;1267;22556;-52
2022/07/11 09:29:27;;;;;;;4.80;1.00;;;23.50;52.40;;;;;;220139;1267;22550;-54
2022/07/11 09:34:36;;;;;;;2.40;1.10;;;23.60;52.30;;;;;;220723;1267;23947;-54
2022/07/11 09:39:48;;;;;;;2.60;1.00;;;23.60;52.40;;;;;;220405;1267;24355;-52
2022/07/11 09:45:11;;;;;;;3.90;1.10;;;23.60;52.60;;;;;;220519;1267;25355;-54
2022/07/11 09:50:27;;;;;;;2.10;1.10;;;23.60;52.50;;;;;;220190;1270;22559;-55
2022/07/11 09:55:33;;;;;;;7.00;1.10;;;23.60;52.30;;;;;;220509;1267;25307;-54
2022/07/11 10:00:57;;;;;;;2.00;1.00;;;23.60;51.80;;;;;;220397;1268;22550;-57
2022/07/11 10:06:00;;;;;;;3.60;1.20;;;23.60;52.30;;;;;;220178;1268;22587;-59
2022/07/11 10:11:04;;;;;;;1.80;1.00;;;23.70;52.30;;;;;;220081;1267;23901;-53
2022/07/11 10:16:22;;;;;;;2.00;1.10;;;23.70;52.50;;;;;;220732;1267;25281;-53
2022/07/11 10:22:06;;;;;;;2.80;1.30;;;23.70;52.40;;;;;;220078;1267;25272;-51
2022/07/11 10:27:17;;;;;;;6.30;1.20;;;23.70;52.10;;;;;;219984;1268;24089;-54
2022/07/11 10:32:21;;;;;;;5.10;1.20;;;23.70;52.40;;;;;;220277;1267;24399;-50
2022/07/11 10:37:24;;;;;;;3.40;1.00;;;23.70;52.20;;;;;;220548;1268;26337;-54
2022/07/11 10:42:39;;;;;;;2.50;1.30;;;23.70;52.60;;;;;;220733;1268;24015;-53
2022/07/11 10:47:44;;;;;;;3.70;1.10;;;23.70;52.50;;;;;;220343;1268;22787;-55
2022/07/11 10:53:08;;;;;;;2.20;1.00;;;23.70;52.20;;;;;;220344;1268;22550;-52
2022/07/11 10:58:31;;;;;;;3.50;1.10;;;23.70;52.20;;;;;;220379;1267;24216;-54
2022/07/11 11:03:34;;;;;;;2.80;1.30;;;23.70;52.50;;;;;;220734;1267;22672;-54
2022/07/11 11:08:40;;;;;;;2.90;1.20;;;23.80;52.20;;;;;;220378;1267;22548;-55
2022/07/11 11:13:44;;;;;;;3.20;1.10;;;23.80;52.30;;;;;;220305;1270;22562;-51
2022/07/11 11:18:48;;;;;;;3.40;1.30;;;23.80;52.20;;;;;;220257;1268;24232;-52
2022/07/11 11:24:02;;;;;;;2.20;0.90;;;23.80;52.10;;;;;;220583;1267;22522;-53
2022/07/11 11:29:09;;;;;;;2.20;1.20;;;23.80;52.10;;;;;;220121;1267;24262;-53
2022/07/11 11:34:16;;;;;;;2.70;1.10;;;23.80;52.30;;;;;;220336;1267;22640;-52
2022/07/11 11:39:31;;;;;;;1.60;0.90;;;23.80;51.90;;;;;;220472;1267;22554;-53
2022/07/11 11:44:49;;;;;;;1.80;1.10;;;23.80;51.90;;;;;;220199;1267;22606;-51
2022/07/11 11:49:53;;;;;;;2.60;1.20;;;23.80;51.80;;;;;;220382;1267;22585;-55
2022/07/11 11:54:58;;;;;;;2.30;1.00;;;23.80;51.70;;;;;;220152;1267;25246;-55
2022/07/11 12:00:02;;;;;;;2.20;1.00;;;23.80;51.60;;;;;;219937;1268;24374;-52
2022/07/11 12:05:07;;;;;;;2.40;1.00;;;23.80;51.60;;;;;;220649;1268;25431;-55
2022/07/11 12:10:14;;;;;;;2.10;1.00;;;23.90;51.90;;;;;;220388;1270;22534;-54
2022/07/11 12:15:27;;;;;;;3.40;1.10;;;23.80;51.50;;;;;;220570;1267;24225;-55
2022/07/11 12:20:44;;;;;;;1.50;1.00;;;23.80;51.50;;;;;;220417;1267;24227;-53
2022/07/11 12:25:50;;;;;;;2.90;0.90;;;23.80;51.60;;;;;;220291;1267;24153;-53
2022/07/11 12:30:57;;;;;;;2.00;1.00;;;23.80;51.30;;;;;;220777;1267;24296;-52
2022/07/11 12:36:02;;;;;;;3.10;1.30;;;23.80;51.50;;;;;;220849;1270;22607;-53
2022/07/11 12:41:05;;;;;;;1.50;0.80;;;23.80;51.70;;;;;;220158;1267;22648;-52
2022/07/11 12:46:10;;;;;;;1.80;0.90;;;23.80;51.60;;;;;;220087;1268;26762;-51
2022/07/11 12:51:35;;;;;;;3.70;0.90;;;23.80;51.40;;;;;;220468;1267;24335;-51
2022/07/11 12:56:40;;;;;;;1.70;1.20;;;23.70;51.90;;;;;;220687;1269;22637;-51
2022/07/11 13:02:04;;;;;;;2.90;1.00;;;23.70;52.30;;;;;;220405;1267;24292;-53
2022/07/11 13:12:57;;;;;;;2.10;1.10;;;23.70;52.50;;;;;;220520;1267;26447;-53
2022/07/11 13:18:01;;;;;;;2.10;1.20;;;23.60;52.60;;;;;;220254;1270;24198;-49
2022/07/11 13:23:07;;;;;;;3.50;1.40;;;23.70;53.10;;;;;;220530;1268;25347;-56
2022/07/11 13:28:19;;;;;;;2.30;1.10;;;23.70;52.50;;;;;;220122;1268;22555;-53
2022/07/11 13:33:22;;;;;;;2.70;1.00;;;23.70;53.10;;;;;;220186;1268;546448;-56
2022/07/11 13:38:26;;;;;;;3.30;1.00;;;23.70;53.50;;;;;;220214;1267;24215;-53
2022/07/11 13:43:30;;;;;;;2.30;1.10;;;23.70;53.00;;;;;;220799;1267;25503;-52
2022/07/11 13:48:36;;;;;;;2.20;1.00;;;23.70;53.30;;;;;;219988;1267;22738;-53
2022/07/11 13:53:40;;;;;;;3.40;0.90;;;23.80;53.10;;;;;;220513;1271;22570;-52
2022/07/11 13:58:44;;;;;;;2.20;1.00;;;23.80;53.00;;;;;;220369;1269;24253;-53
2022/07/11 14:03:48;;;;;;;3.20;1.10;;;23.80;52.90;;;;;;220391;1268;25591;-55
2022/07/11 14:08:52;;;;;;;2.30;1.00;;;23.80;52.90;;;;;;220417;1267;23001;-53
2022/07/11 14:13:57;;;;;;;2.50;0.90;;;23.80;53.30;;;;;;221035;1268;24238;-51
2022/07/11 14:19:04;;;;;;;2.30;0.90;;;23.80;53.60;;;;;;220423;1268;24297;-51
2022/07/11 14:24:08;;;;;;;3.80;1.00;;;23.80;53.30;;;;;;220255;1270;22988;-50
2022/07/11 14:29:12;;;;;;;2.00;0.90;;;23.80;53.20;;;;;;220906;1269;22520;-52
2022/07/11 14:34:15;;;;;;;2.10;1.10;;;23.80;53.10;;;;;;220580;1268;24212;-55
2022/07/11 14:39:24;;;;;;;1.30;0.90;;;23.80;53.10;;;;;;220463;1270;22786;-50
2022/07/11 14:44:28;;;;;;;2.20;0.90;;;23.80;53.00;;;;;;220380;1270;23857;-50
2022/07/11 14:49:39;;;;;;;3.60;1.10;;;23.80;53.00;;;;;;220745;1268;22519;-56
2022/07/11 14:54:43;;;;;;;2.20;1.20;;;23.80;52.90;;;;;;220896;1268;22572;-55
2022/07/11 14:59:47;;;;;;;2.50;1.00;;;23.80;53.00;;;;;;220442;1270;22576;-52
2022/07/11 15:04:52;;;;;;;1.80;0.80;;;23.70;52.80;;;;;;220801;1270;22540;-54
2022/07/11 15:15:18;;;;;;;2.00;0.90;;;23.70;52.90;;;;;;220227;1269;24296;-51
2022/07/11 15:20:24;;;;;;;2.00;0.80;;;23.70;53.70;;;;;;220632;1270;22547;-54
2022/07/11 15:25:27;;;;;;;1.40;0.90;;;23.70;53.10;;;;;;220395;1271;24588;-49
2022/07/11 15:30:31;;;;;;;2.00;1.10;;;23.60;53.10;;;;;;220243;1267;22540;-51
2022/07/11 15:35:43;;;;;;;2.00;0.80;;;23.70;53.30;;;;;;220012;1271;24159;-52
2022/07/11 15:40:47;;;;;;;2.90;1.30;;;23.70;53.30;;;;;;220191;1271;22600;-49
2022/07/11 15:45:54;;;;;;;1.90;1.00;;;23.70;53.30;;;;;;220976;1267;22821;-52
2022/07/11 15:50:57;;;;;;;1.50;0.80;;;23.70;53.40;;;;;;220833;1269;22554;-50
2022/07/11 15:56:03;;;;;;;2.10;0.80;;;23.70;53.40;;;;;;220798;1268;25445;-50
2022/07/11 16:01:07;;;;;;;2.60;0.90;;;23.70;53.30;;;;;;220629;1268;24056;-49
2022/07/11 16:06:14;;;;;;;1.50;0.90;;;23.60;53.60;;;;;;220851;1268;22697;-53
2022/07/11 16:11:18;;;;;;;1.10;0.80;;;23.70;53.50;;;;;;220557;1268;26002;-51
2022/07/11 16:16:25;;;;;;;1.10;0.70;;;23.70;53.40;;;;;;220492;1268;23910;-53
2022/07/11 16:21:29;;;;;;;1.30;0.80;;;23.70;53.80;;;;;;220704;1269;22529;-57
2022/07/11 16:26:33;;;;;;;3.70;1.30;;;23.70;53.50;;;;;;220672;1268;24128;-51
2022/07/11 16:31:39;;;;;;;1.30;0.90;;;23.70;53.50;;;;;;220485;1268;22536;-54
2022/07/11 16:37:02;;;;;;;1.70;0.90;;;23.70;53.50;;;;;;220431;1268;25646;-51
2022/07/11 16:47:36;;;;;;;1.90;0.80;;;23.70;53.60;;;;;;220365;1268;22717;-53
2022/07/11 16:52:40;;;;;;;1.70;0.70;;;23.60;53.60;;;;;;220421;1268;22531;-56
2022/07/11 16:57:48;;;;;;;1.90;1.00;;;23.70;53.70;;;;;;220594;1268;22559;-53
2022/07/11 17:02:56;;;;;;;1.10;0.80;;;23.60;53.70;;;;;;220223;1271;22596;-49
2022/07/11 17:13:37;;;;;;;1.80;0.80;;;23.60;53.80;;;;;;220317;1267;22760;-53
2022/07/11 17:18:44;;;;;;;2.20;0.90;;;23.60;54.20;;;;;;220223;1269;25251;-52
2022/07/11 17:23:57;;;;;;;1.30;0.80;;;23.60;53.80;;;;;;220262;1268;23950;-50
2022/07/11 17:29:07;;;;;;;1.80;0.90;;;23.60;54.10;;;;;;220148;1267;24185;-51
2022/07/11 17:34:14;;;;;;;1.50;1.00;;;23.60;53.80;;;;;;220443;1268;22482;-50
2022/07/11 17:39:18;;;;;;;1.50;0.80;;;23.60;53.80;;;;;;220409;1267;22652;-55
2022/07/11 17:44:23;;;;;;;2.10;1.00;;;23.60;53.80;;;;;;220365;1267;22543;-51
2022/07/11 17:49:32;;;;;;;1.30;0.70;;;23.60;53.80;;;;;;221014;1267;22545;-52
2022/07/11 17:54:36;;;;;;;0.90;0.70;;;23.60;53.90;;;;;;220858;1268;23147;-51
2022/07/11 17:59:58;;;;;;;1.60;0.80;;;23.60;53.80;;;;;;220515;1268;24305;-53
2022/07/11 18:05:08;;;;;;;2.40;0.70;;;23.60;53.90;;;;;;220257;1267;22531;-50
2022/07/11 18:10:12;;;;;;;2.00;0.80;;;23.60;53.90;;;;;;220762;1268;25442;-56
2022/07/11 18:15:16;;;;;;;1.30;0.80;;;23.60;53.90;;;;;;220651;1267;22820;-50
2022/07/11 18:20:20;;;;;;;1.40;0.90;;;23.60;54.40;;;;;;220484;1268;24399;-51
2022/07/11 18:25:24;;;;;;;1.50;0.80;;;23.60;53.90;;;;;;220913;1267;24198;-53
2022/07/11 18:30:29;;;;;;;1.20;0.70;;;23.60;53.90;;;;;;220902;1268;24275;-54
2022/07/11 18:35:33;;;;;;;1.30;0.80;;;23.60;53.90;;;;;;220518;1267;22548;-52
2022/07/11 18:46:01;;;;;;;1.00;0.70;;;23.60;53.90;;;;;;220478;1268;24221;-49
2022/07/11 18:51:06;;;;;;;1.10;0.80;;;23.50;54.20;;;;;;220642;1267;24218;-52
2022/07/11 18:56:10;;;;;;;1.90;0.80;;;23.50;54.20;;;;;;220698;1268;22531;-55
2022/07/11 19:01:14;;;;;;;1.70;0.90;;;23.50;53.90;;;;;;220710;1266;22551;-50
2022/07/11 19:06:18;;;;;;;1.40;0.90;;;23.50;53.90;;;;;;220558;1268;24375;-52
2022/07/11 19:11:21;;;;;;;1.00;0.80;;;23.50;53.90;;;;;;220383;1267;24354;-53
2022/07/11 19:16:25;;;;;;;1.20;0.80;;;23.50;53.90;;;;;;220615;1267;25325;-51
2022/07/11 19:21:29;;;;;;;1.40;0.90;;;23.50;54.30;;;;;;220428;1267;22553;-51
2022/07/11 19:26:41;;;;;;;0.90;0.70;;;23.50;53.90;;;;;;220065;1270;26638;-55
2022/07/11 19:31:44;;;;;;;1.60;0.90;;;23.50;54.00;;;;;;220186;1268;22596;-52
2022/07/11 19:36:48;;;;;;;1.70;0.70;;;23.50;54.00;;;;;;220714;1267;24492;-52
2022/07/11 19:41:57;;;;;;;1.40;0.80;;;23.50;54.00;;;;;;220606;1267;26879;-48
2022/07/11 19:47:01;;;;;;;1.60;0.90;;;23.50;54.20;;;;;;220238;1267;22898;-52
2022/07/11 19:52:12;;;;;;;1.50;0.80;;;23.50;54.00;;;;;;220575;1268;26716;-52
2022/07/11 19:57:24;;;;;;;;;;;23.50;54.20;;;;;;220339;1267;24248;-51
2022/07/11 20:02:31;;;;;;;1.60;1.00;;;23.50;54.10;;;;;;220293;1267;22603;-51
2022/07/11 20:07:40;;;;;;;1.70;1.10;;;23.40;54.10;;;;;;220181;1269;23138;-49
2022/07/11 20:12:51;;;;;;;0.90;0.70;;;23.50;54.20;;;;;;220471;1268;25528;-56
2022/07/11 20:17:55;;;;;;;0.90;0.70;;;23.40;54.10;;;;;;220676;1267;22637;-52
2022/07/11 20:22:59;;;;;;;1.40;0.90;;;23.40;54.20;;;;;;220606;1268;24027;-53
2022/07/11 20:28:03;;;;;;;1.40;0.80;;;23.40;54.50;;;;;;220729;1267;24341;-53
2022/07/11 20:33:10;;;;;;;1.00;0.70;;;23.40;54.50;;;;;;220422;1267;25343;-53
2022/07/11 20:38:14;;;;;;;1.60;0.90;;;23.40;54.60;;;;;;220557;1268;23943;-53
2022/07/11 20:43:17;;;;;;;1.70;0.80;;;23.30;54.60;;;;;;220191;1269;22795;-52
2022/07/11 20:48:23;;;;;;;1.70;0.90;;;23.30;54.60;;;;;;220395;1268;25598;-50
2022/07/11 20:53:28;;;;;;;2.00;1.00;;;23.30;54.60;;;;;;220328;1267;22556;-49
2022/07/11 20:58:32;;;;;;;0.80;0.70;;;23.30;54.30;;;;;;220587;1266;23155;-51
2022/07/11 21:03:36;;;;;;;1.80;0.90;;;23.30;54.30;;;;;;220617;1267;22652;-51
2022/07/11 21:08:41;;;;;;;1.20;0.80;;;23.30;54.30;;;;;;220914;1267;24306;-55
2022/07/11 21:13:46;;;;;;;1.60;0.90;;;23.30;54.30;;;;;;220316;1267;22559;-52
2022/07/11 21:18:52;;;;;;;1.20;0.80;;;23.30;54.30;;;;;;220245;1267;22551;-51
2022/07/11 21:24:22;;;;;;;1.40;0.80;;;23.30;54.30;;;;;;220250;1267;22630;-54
2022/07/11 21:29:30;;;;;;;1.40;0.90;;;23.30;54.40;;;;;;220375;1267;25361;-50
2022/07/11 21:34:56;;;;;;;2.10;1.00;;;23.30;54.70;;;;;;220167;1268;22576;-54
2022/07/11 21:40:20;;;;;;;2.00;0.90;;;23.20;54.40;;;;;;220503;1267;24738;-50
2022/07/11 21:45:25;;;;;;;1.60;0.90;;;23.30;54.50;;;;;;220679;1267;22822;-52
2022/07/11 21:50:33;;;;;;;1.00;0.80;;;23.20;54.70;;;;;;220326;1268;22716;-52
2022/07/11 21:55:42;;;;;;;1.10;0.90;;;23.20;54.50;;;;;;220531;1267;25245;-50
2022/07/11 22:00:46;;;;;;;2.10;0.80;;;23.20;54.50;;;;;;220384;1267;22550;-49
2022/07/11 22:05:50;;;;;;;3.60;1.20;;;23.20;54.50;;;;;;220285;1267;22750;-52
2022/07/11 22:10:58;;;;;;;2.80;1.10;;;23.20;54.60;;;;;;220202;1267;25067;-51
2022/07/11 22:16:07;;;;;;;1.00;0.70;;;23.20;54.50;;;;;;220168;1268;22550;-52
2022/07/11 22:21:14;;;;;;;1.50;0.80;;;23.20;54.60;;;;;;220375;1267;22628;-53
2022/07/11 22:26:19;;;;;;;1.40;0.80;;;23.10;54.60;;;;;;220525;1267;26516;-53
2022/07/11 22:31:23;;;;;;;3.20;1.00;;;23.10;55.20;;;;;;220662;1267;22630;-53
2022/07/11 22:36:27;;;;;;;2.10;1.20;;;23.10;54.60;;;;;;220590;1267;22646;-51
2022/07/11 22:41:32;;;;;;;2.10;1.00;;;23.10;54.60;;;;;;220398;1269;25433;-49
2022/07/11 22:46:38;;;;;;;1.20;0.80;;;23.10;54.60;;;;;;220578;1267;25304;-51
2022/07/11 22:52:02;;;;;;;2.60;0.90;;;23.10;55.00;;;;;;220205;1267;24219;-54
2022/07/11 22:57:10;;;;;;;1.60;1.00;;;23.00;54.50;;;;;;220221;1270;25537;-55
2022/07/11 23:02:14;;;;;;;1.80;0.90;;;23.10;54.60;;;;;;220241;1270;22534;-52
2022/07/11 23:07:19;;;;;;;2.00;1.10;;;23.00;54.50;;;;;;220353;1267;23035;-53
2022/07/11 23:12:27;;;;;;;2.00;0.90;;;23.00;54.50;;;;;;220486;1267;24193;-51
2022/07/11 23:17:36;;;;;;;1.60;0.90;;;23.10;54.90;;;;;;220342;1267;24310;-49
2022/07/11 23:22:43;;;;;;;2.80;0.90;;;23.00;54.60;;;;;;220294;1267;24246;-51
2022/07/11 23:27:46;;;;;;;2.70;1.00;;;23.00;54.50;;;;;;220338;1267;24201;-50
2022/07/11 23:32:50;;;;;;;2.70;1.00;;;23.00;54.90;;;;;;220518;1267;25256;-52
2022/07/11 23:37:55;;;;;;;2.30;1.00;;;23.00;54.60;;;;;;220447;1266;25362;-50
2022/07/11 23:43:02;;;;;;;1.50;0.70;;;23.00;54.60;;;;;;220424;1267;22577;-53
2022/07/11 23:48:07;;;;;;;3.60;0.90;;;22.90;54.60;;;;;;220437;1268;24337;-51
2022/07/11 23:53:11;;;;;;;3.70;0.90;;;22.90;54.50;;;;;;220061;1268;24155;-50
2022/07/11 23:58:15;;;;;;;2.20;1.10;;;22.90;54.50;;;;;;220204;1268;26278;-50
